Terminal Aerodrome Forecast
Issued by NWS

Home | Current Version | Previous Version | Text Only | Print | Product List | Glossary On
Versions: 1 2 3 4 5 6 7 8 9 10 11 12 13 14 15 16 17 18 19 20 21 22 23 24 25 26 27 28
292
FTUS45 KREV 270040 AAA
TAFTRK
TAF AMD
KTRK 270040Z 2701/2724 21014G30KT 5SM -TSRA BKN050CB BKN100
     FM270200 VRB04KT P6SM SCT080
     FM271100 24010KT P6SM SCT120
     FM271700 22015G26KT P6SM SCT120=

USA.gov is the U.S. government's official web portal to all federal, state and local government web resources and services.